Time,TemperatureF,DewpointF,PressureIn,WindDirection,WindDirectionDegrees,WindSpeedMPH,WindSpeedGustMPH,Humidity,HourlyPrecipIn,Conditions,Clouds,dailyrainin,SoftwareType,DateUTC
2013-03-10 00:00:00,40.8,40.6,29.74,NE,45,3.0,18.0,99,0.00,RA,FEW,0.00,WeatherDisplay:10.37,2013-03-10 00:00:00,
2013-03-10 00:31:00,40.6,40.4,29.74,NE,45,6.0,16.0,99,0.00,CLR,FEW,0.00,WeatherDisplay:10.37,2013-03-10 00:31:00,
2013-03-10 01:01:00,40.8,40.5,29.75,NE,45,7.0,20.0,99,0.00,CLR,FEW,0.00,WeatherDisplay:10.37,2013-03-10 01:01:00,
2013-03-10 01:31:00,40.6,40.4,29.74,NE,45,7.0,21.0,99,0.00,CLR,FEW,0.00,WeatherDisplay:10.37,2013-03-10 01:31:00,
2013-03-10 02:01:00,40.6,40.4,29.75,NE,45,5.0,23.0,99,0.00,CLR,FEW,0.00,WeatherDisplay:10.37,2013-03-10 02:01:00,
2013-03-10 02:31:00,40.5,40.2,29.75,NE,45,3.0,23.0,99,0.00,CLR,FEW,0.00,WeatherDisplay:10.37,2013-03-10 02:31:00,
2013-03-10 03:02:00,40.3,40.0,29.75,NE,45,8.0,21.0,99,0.00,CLR,FEW,0.00,WeatherDisplay:10.37,2013-03-10 03:02:00,
2013-03-10 03:30:00,40.3,40.0,29.75,NE,45,7.0,21.0,99,0.00,CLR,FEW,0.00,WeatherDisplay:10.37,2013-03-10 03:30:00,
2013-03-10 04:01:00,40.3,40.0,29.74,NE,45,3.0,17.0,99,0.00,CLR,FEW,0.00,WeatherDisplay:10.37,2013-03-10 04:01:00,
2013-03-10 04:30:00,40.0,39.7,29.75,NE,45,5.0,20.0,99,0.00,CLR,FEW,0.00,WeatherDisplay:10.37,2013-03-10 04:30:00,
2013-03-10 05:00:00,40.1,39.8,29.75,NE,45,8.0,23.0,99,0.00,CLR,FEW,0.00,WeatherDisplay:10.37,2013-03-10 05:00:00,
2013-03-10 05:31:00,40.0,39.8,29.76,NE,45,7.0,21.0,99,0.00,CLR,FEW,0.00,WeatherDisplay:10.37,2013-03-10 05:31:00,
2013-03-10 06:01:00,40.1,39.8,29.76,NE,45,6.0,17.0,99,0.00,CLR,FEW,0.00,WeatherDisplay:10.37,2013-03-10 06:01:00,
2013-03-10 06:31:00,39.9,39.7,29.77,NE,45,7.0,23.0,99,0.00,CLR,FEW,0.00,WeatherDisplay:10.37,2013-03-10 06:31:00,
2013-03-10 07:01:00,40.1,39.8,29.77,NE,45,7.0,21.0,99,0.00,CLR,FEW,0.00,WeatherDisplay:10.37,2013-03-10 07:01:00,
2013-03-10 07:31:00,40.2,39.9,29.78,NE,45,5.0,20.0,99,0.00,CLR,FEW,0.00,WeatherDisplay:10.37,2013-03-10 07:31:00,
2013-03-10 08:01:00,40.3,40.0,29.78,NE,45,3.0,20.0,99,0.00,CLR,FEW,0.00,WeatherDisplay:10.37,2013-03-10 08:01:00,
2013-03-10 08:31:00,40.3,40.0,29.79,NE,45,3.0,18.0,99,0.00,CLR,FEW,0.00,WeatherDisplay:10.37,2013-03-10 08:31:00,
2013-03-10 09:02:00,40.2,39.4,29.79,NE,45,6.0,21.0,97,0.00,CLR,FEW,0.00,WeatherDisplay:10.37,2013-03-10 09:02:00,
2013-03-10 09:30:00,40.1,38.5,29.79,NE,45,6.0,23.0,94,0.00,CLR,FEW,0.00,WeatherDisplay:10.37,2013-03-10 09:30:00,
2013-03-10 10:00:00,40.0,38.4,29.80,NE,45,6.0,20.0,94,0.00,CLR,FEW,0.00,WeatherDisplay:10.37,2013-03-10 10:00:00,
2013-03-10 10:30:00,39.9,37.8,29.81,NE,45,12.0,29.0,92,0.01,RA,FEW,0.01,WeatherDisplay:10.37,2013-03-10 10:30:00,
2013-03-10 11:00:00,39.9,36.7,29.81,NE,45,6.0,20.0,88,0.00,CLR,FEW,0.01,WeatherDisplay:10.37,2013-03-10 11:00:00,
2013-03-10 11:31:00,40.1,35.4,29.82,NE,45,7.0,21.0,83,0.00,,FEW,0.01,WeatherDisplay:10.37,2013-03-10 11:31:00,
2013-03-10 12:01:00,40.8,34.5,29.82,NE,45,6.0,20.0,78,0.00,,FEW,0.01,WeatherDisplay:10.37,2013-03-10 12:01:00,
2013-03-10 12:31:00,41.0,33.3,29.83,NE,45,8.0,18.0,74,0.00,,FEW,0.01,WeatherDisplay:10.37,2013-03-10 12:31:00,
2013-03-10 13:01:00,41.2,32.8,29.83,NE,45,5.0,20.0,72,0.00,,FEW,0.01,WeatherDisplay:10.37,2013-03-10 13:01:00,
2013-03-10 13:30:00,41.2,32.1,29.83,NE,45,6.0,20.0,70,0.00,,FEW,0.01,WeatherDisplay:10.37,2013-03-10 13:30:00,
2013-03-10 14:00:00,41.0,31.2,29.84,NE,45,9.0,21.0,68,0.00,,FEW,0.01,WeatherDisplay:10.37,2013-03-10 14:00:00,
2013-03-10 14:30:00,40.0,31.7,29.85,NE,45,6.0,21.0,72,0.00,,FEW,0.01,WeatherDisplay:10.37,2013-03-10 14:30:00,
2013-03-10 15:00:00,39.2,29.9,29.85,NE,45,8.0,20.0,69,0.00,,FEW,0.01,WeatherDisplay:10.37,2013-03-10 15:00:00,
2013-03-10 15:30:00,39.4,29.3,29.85,NE,45,2.0,16.0,67,0.00,,FEW,0.01,WeatherDisplay:10.37,2013-03-10 15:30:00,
2013-03-10 16:00:00,39.4,29.0,29.86,NE,45,12.0,20.0,66,0.00,,FEW,0.01,WeatherDisplay:10.37,2013-03-10 16:00:00,
2013-03-10 16:30:00,39.2,28.0,29.87,NE,45,7.0,29.0,64,0.00,,FEW,0.01,WeatherDisplay:10.37,2013-03-10 16:30:00,
2013-03-10 17:00:00,38.8,25.3,29.88,NE,45,9.0,26.0,58,0.00,,FEW,0.01,WeatherDisplay:10.37,2013-03-10 17:00:00,
2013-03-10 17:30:00,39.0,25.5,29.89,NE,45,7.0,26.0,58,0.00,,FEW,0.01,WeatherDisplay:10.37,2013-03-10 17:30:00,
2013-03-10 18:00:00,38.8,24.9,29.89,NE,45,7.0,21.0,57,0.00,,FEW,0.01,WeatherDisplay:10.37,2013-03-10 18:00:00,
2013-03-10 18:30:00,38.5,23.3,29.90,NE,45,10.0,21.0,54,0.00,,FEW,0.01,WeatherDisplay:10.37,2013-03-10 18:30:00,
2013-03-10 19:00:00,38.1,22.0,29.92,NE,45,7.0,22.0,52,0.00,,FEW,0.01,WeatherDisplay:10.37,2013-03-10 19:00:00,
2013-03-10 19:30:00,37.9,22.8,29.93,NE,45,1.0,23.0,54,0.00,,FEW,0.01,WeatherDisplay:10.37,2013-03-10 19:30:00,
2013-03-10 20:00:00,37.6,22.0,29.94,NE,45,10.0,29.0,53,0.00,,FEW,0.01,WeatherDisplay:10.37,2013-03-10 20:00:00,
2013-03-10 20:30:00,36.5,19.1,29.95,NE,45,10.0,25.0,49,0.00,,FEW,0.01,WeatherDisplay:10.37,2013-03-10 20:30:00,
2013-03-10 21:00:00,36.0,17.2,29.95,NE,45,6.0,24.0,46,0.00,,FEW,0.01,WeatherDisplay:10.37,2013-03-10 21:00:00,
2013-03-10 21:30:00,35.8,16.5,29.96,NE,45,6.0,31.0,45,0.00,,FEW,0.01,WeatherDisplay:10.37,2013-03-10 21:30:00,
2013-03-10 22:00:00,35.4,15.6,29.96,NE,45,8.0,31.0,44,0.00,,FEW,0.01,WeatherDisplay:10.37,2013-03-10 22:00:00,
2013-03-10 22:30:00,35.3,16.6,29.97,NE,45,7.0,24.0,46,0.00,,FEW,0.01,WeatherDisplay:10.37,2013-03-10 22:30:00,
2013-03-10 23:00:00,35.2,16.5,29.97,NE,45,3.0,18.0,46,0.00,,FEW,0.01,WeatherDisplay:10.37,2013-03-10 23:00:00,
2013-03-10 23:30:00,35.2,18.0,29.97,NE,45,6.0,21.0,49,0.00,,FEW,0.01,WeatherDisplay:10.37,2013-03-10 23:30:00,